createdAt,value
2022-08-28T00:02:00.986Z,23.97
2022-08-28T00:04:28.667Z,23.89
2022-08-28T00:06:56.031Z,23.47
2022-08-28T00:09:23.402Z,23.46
2022-08-28T00:11:51.045Z,23.49
2022-08-28T00:14:21.217Z,23.09
2022-08-28T00:16:48.915Z,23.25
2022-08-28T00:19:17.502Z,24.06
2022-08-28T00:21:45.263Z,23.66
2022-08-28T00:24:12.772Z,23.45
2022-08-28T00:26:59.316Z,22.68
2022-08-28T00:29:26.685Z,22.95
2022-08-28T00:31:55.394Z,22.48
2022-08-28T00:34:32.968Z,22.51
2022-08-28T00:37:01.298Z,22.48
2022-08-28T00:39:28.759Z,23.13
2022-08-28T00:41:58.016Z,22.25
2022-08-28T00:46:55.413Z,22.36
2022-08-28T00:49:33.938Z,22.58
2022-08-28T00:52:12.451Z,22.41
2022-08-28T00:54:59.139Z,22.11
2022-08-28T00:57:37.899Z,22.34
2022-08-28T01:00:08.029Z,21.87
2022-08-28T01:02:35.780Z,22.16
2022-08-28T01:05:03.416Z,21.94
2022-08-28T01:07:31.218Z,22.18
2022-08-28T01:10:00.240Z,22.37
2022-08-28T01:12:29.076Z,22.27
2022-08-28T01:15:01.418Z,22.12
2022-08-28T01:17:31.022Z,22.77
2022-08-28T01:20:02.573Z,22.68
2022-08-28T01:22:37.284Z,22.67
2022-08-28T01:25:07.434Z,22.31
2022-08-28T01:27:35.136Z,22.28
2022-08-28T01:30:02.510Z,22.61
2022-08-28T01:32:37.696Z,21.75
2022-08-28T01:35:06.970Z,21.98
2022-08-28T01:37:34.358Z,21.75
2022-08-28T01:40:02.142Z,21.67
2022-08-28T01:42:29.881Z,21.67
2022-08-28T01:44:57.322Z,21.63
2022-08-28T01:47:24.694Z,21.58
2022-08-28T01:49:52.366Z,21.48
2022-08-28T01:52:19.751Z,21.84
2022-08-28T01:54:54.050Z,21.60
2022-08-28T01:57:22.545Z,21.43
2022-08-28T01:59:50.836Z,21.03
2022-08-28T02:02:18.455Z,21.58
2022-08-28T02:04:48.226Z,21.38
2022-08-28T02:07:17.006Z,21.44
2022-08-28T02:09:44.348Z,21.59
2022-08-28T02:12:11.976Z,20.92
2022-08-28T02:14:39.586Z,21.13
2022-08-28T02:17:07.142Z,21.18
2022-08-28T02:19:34.806Z,21.73
2022-08-28T02:22:03.977Z,22.02
2022-08-28T02:24:31.350Z,21.65
2022-08-28T02:26:58.954Z,21.60
2022-08-28T02:29:27.288Z,21.59
2022-08-28T02:31:55.809Z,22.15
2022-08-28T02:34:23.712Z,21.94
2022-08-28T02:36:51.058Z,21.76
2022-08-28T02:39:18.463Z,21.78
2022-08-28T02:41:46.108Z,21.94
2022-08-28T02:44:13.445Z,21.92
2022-08-28T02:46:40.834Z,21.08
2022-08-28T02:49:08.478Z,20.26
2022-08-28T02:51:36.114Z,20.59
2022-08-28T02:54:03.529Z,20.66
2022-08-28T02:56:31.279Z,20.27
2022-08-28T02:58:58.631Z,20.45
2022-08-28T03:01:26.057Z,20.10
2022-08-28T03:03:53.834Z,20.19
2022-08-28T03:06:22.949Z,20.50
2022-08-28T03:08:50.337Z,20.52
2022-08-28T03:11:18.024Z,20.32
2022-08-28T03:13:45.395Z,20.54
2022-08-28T03:16:12.942Z,20.65
2022-08-28T03:18:41.447Z,20.23
2022-08-28T03:21:09.050Z,20.57
2022-08-28T03:23:37.051Z,20.63
2022-08-28T03:26:10.306Z,20.65
2022-08-28T03:28:40.209Z,20.40
2022-08-28T03:31:11.851Z,20.77
2022-08-28T03:33:42.684Z,21.12
2022-08-28T03:36:11.125Z,21.10
2022-08-28T03:38:38.494Z,21.13
2022-08-28T03:41:12.482Z,21.69
2022-08-28T03:43:40.201Z,21.10
2022-08-28T03:46:07.766Z,21.43
2022-08-28T03:48:36.831Z,21.27
2022-08-28T03:51:08.873Z,21.60
2022-08-28T03:53:37.204Z,21.22
2022-08-28T03:56:08.946Z,21.64
2022-08-28T03:58:36.300Z,21.95
2022-08-28T04:01:03.801Z,22.15
2022-08-28T04:03:31.533Z,21.65
2022-08-28T04:05:58.969Z,21.30
2022-08-28T04:08:26.366Z,21.05
2022-08-28T04:10:55.153Z,21.44
2022-08-28T04:13:22.824Z,21.99
2022-08-28T04:16:00.649Z,21.75
2022-08-28T04:18:28.479Z,22.05
2022-08-28T04:21:03.719Z,22.17
2022-08-28T04:23:31.370Z,22.81
2022-08-28T04:25:58.753Z,22.93
2022-08-28T04:28:26.447Z,23.07
2022-08-28T04:30:54.641Z,22.82
2022-08-28T04:33:23.128Z,23.03
2022-08-28T04:35:50.562Z,23.27
2022-08-28T04:38:18.457Z,23.32
2022-08-28T04:40:45.819Z,23.40
2022-08-28T04:43:13.261Z,22.77
2022-08-28T04:45:44.775Z,22.44
2022-08-28T04:48:15.182Z,22.10
2022-08-28T04:50:43.888Z,22.13
2022-08-28T04:53:11.590Z,22.91
2022-08-28T04:55:54.166Z,22.18
2022-08-28T04:58:23.798Z,22.30
2022-08-28T05:00:52.122Z,22.72
2022-08-28T05:03:19.578Z,23.16
2022-08-28T05:05:48.674Z,23.08
2022-08-28T05:08:17.796Z,23.33
2022-08-28T05:10:46.379Z,23.33
2022-08-28T05:13:15.416Z,23.55
2022-08-28T05:15:44.548Z,23.30
2022-08-28T05:18:14.219Z,23.30
2022-08-28T05:20:44.918Z,24.02
2022-08-28T05:23:12.901Z,24.45
2022-08-28T05:25:42.009Z,23.43
2022-08-28T05:28:12.305Z,23.55
2022-08-28T05:30:40.637Z,24.34
2022-08-28T05:33:08.211Z,24.78
2022-08-28T05:35:40.244Z,25.03
2022-08-28T05:38:07.651Z,24.64
2022-08-28T05:40:35.090Z,25.14
2022-08-28T05:43:02.814Z,25.42
2022-08-28T05:45:30.330Z,25.12
2022-08-28T05:47:57.791Z,25.12
2022-08-28T05:50:25.460Z,25.33
2022-08-28T05:52:52.796Z,25.70
2022-08-28T05:55:20.170Z,25.34
2022-08-28T05:57:47.782Z,25.00
2022-08-28T06:00:15.390Z,25.91
2022-08-28T06:02:44.404Z,25.97
2022-08-28T06:05:12.888Z,25.72
2022-08-28T06:07:41.178Z,25.92
2022-08-28T06:10:10.783Z,26.18
2022-08-28T06:12:38.298Z,26.21
2022-08-28T06:15:06.063Z,26.25
2022-08-28T06:17:34.994Z,26.29
2022-08-28T06:20:02.523Z,26.87
2022-08-28T06:22:29.900Z,27.10
2022-08-28T06:24:57.686Z,27.01
2022-08-28T06:27:25.076Z,27.28
2022-08-28T06:29:52.446Z,27.37
2022-08-28T06:32:20.140Z,27.05
2022-08-28T06:34:47.572Z,27.80
2022-08-28T06:37:14.944Z,27.09
2022-08-28T06:39:42.620Z,27.94
2022-08-28T06:42:10.572Z,28.35
2022-08-28T06:44:39.221Z,27.94
2022-08-28T06:47:06.970Z,28.70
2022-08-28T06:49:35.041Z,28.84
2022-08-28T06:52:02.570Z,28.60
2022-08-28T06:54:31.126Z,29.47
2022-08-28T06:56:58.509Z,29.80
2022-08-28T06:59:26.262Z,29.40
2022-08-28T07:01:54.427Z,29.02
2022-08-28T07:04:21.938Z,27.59
2022-08-28T07:06:54.090Z,29.13
2022-08-28T07:09:22.221Z,29.79
2022-08-28T07:11:49.588Z,30.09
2022-08-28T07:14:17.012Z,30.41
2022-08-28T07:16:44.948Z,30.21
2022-08-28T07:19:12.368Z,30.23
2022-08-28T07:21:41.855Z,30.27
2022-08-28T07:24:10.617Z,30.62
2022-08-28T07:26:40.843Z,30.25
2022-08-28T07:29:11.042Z,30.84
2022-08-28T07:31:41.171Z,31.07
2022-08-28T07:34:10.050Z,31.39
2022-08-28T07:36:37.680Z,30.62
2022-08-28T07:39:05.532Z,29.09
2022-08-28T07:41:33.968Z,29.03
2022-08-28T07:44:19.911Z,27.92
2022-08-28T07:46:47.525Z,28.58
2022-08-28T07:49:18.446Z,28.70
2022-08-28T07:51:46.936Z,28.14
2022-08-28T07:54:18.074Z,29.07
2022-08-28T07:56:46.542Z,29.56
2022-08-28T07:59:16.904Z,28.74
2022-08-28T08:01:46.535Z,28.06
2022-08-28T08:04:15.937Z,27.69
2022-08-28T08:06:43.511Z,28.53
2022-08-28T08:09:12.509Z,28.55
2022-08-28T08:11:40.177Z,28.85
2022-08-28T08:14:07.672Z,28.66
2022-08-28T08:16:38.534Z,28.69
2022-08-28T08:19:06.806Z,28.95
2022-08-28T08:21:34.182Z,29.13
2022-08-28T08:24:02.072Z,29.01
2022-08-28T08:26:29.695Z,29.11
2022-08-28T08:28:57.135Z,28.94
2022-08-28T08:31:26.612Z,30.11
2022-08-28T08:33:57.198Z,30.08
2022-08-28T08:36:26.412Z,29.80
2022-08-28T08:38:59.438Z,30.55
2022-08-28T08:41:30.318Z,30.12
2022-08-28T08:44:08.032Z,29.07
2022-08-28T08:46:40.145Z,28.36
2022-08-28T08:49:13.522Z,30.25
2022-08-28T08:51:43.326Z,28.70
2022-08-28T08:54:13.042Z,32.37
2022-08-28T08:56:41.612Z,33.50
2022-08-28T08:59:20.754Z,34.07
2022-08-28T09:01:55.293Z,36.78
2022-08-28T09:04:39.777Z,37.49
2022-08-28T09:07:23.529Z,36.81
2022-08-28T09:09:52.568Z,37.46
2022-08-28T09:12:30.752Z,37.57
2022-08-28T09:15:17.606Z,36.30
2022-08-28T09:17:50.938Z,37.97
2022-08-28T09:20:21.403Z,39.97
2022-08-28T09:23:00.064Z,41.10
2022-08-28T09:25:56.496Z,39.73
2022-08-28T09:28:32.792Z,41.13
2022-08-28T09:31:15.815Z,42.95
2022-08-28T09:33:49.420Z,42.41
2022-08-28T09:36:33.030Z,42.88
2022-08-28T09:39:10.146Z,43.76
2022-08-28T09:42:12.382Z,44.57
2022-08-28T09:45:08.999Z,45.17
2022-08-28T09:47:52.591Z,41.03
2022-08-28T09:50:41.649Z,41.50
2022-08-28T09:53:08.863Z,41.26
2022-08-28T09:55:55.738Z,42.39
2022-08-28T09:58:24.080Z,41.32
2022-08-28T10:01:06.084Z,40.71
2022-08-28T10:03:35.957Z,37.90
2022-08-28T10:06:13.772Z,41.15
2022-08-28T10:09:00.156Z,39.13
2022-08-28T10:11:36.402Z,41.17
2022-08-28T10:14:14.238Z,38.80
2022-08-28T10:16:59.694Z,38.92
2022-08-28T10:19:39.146Z,37.29
2022-08-28T10:22:25.179Z,39.15
2022-08-28T10:25:03.898Z,38.38
2022-08-28T10:27:44.862Z,40.54
2022-08-28T10:30:17.653Z,42.19
2022-08-28T10:32:58.397Z,42.12
2022-08-28T10:35:35.175Z,37.65
2022-08-28T10:38:11.867Z,35.50
2022-08-28T10:40:40.677Z,34.41
2022-08-28T10:43:11.498Z,35.82
2022-08-28T10:45:39.029Z,34.31
2022-08-28T10:48:21.401Z,32.59
2022-08-28T10:51:02.367Z,33.52
2022-08-28T10:53:39.277Z,32.23
2022-08-28T10:56:24.847Z,31.66
2022-08-28T10:58:56.281Z,31.42
2022-08-28T11:01:32.247Z,31.35
2022-08-28T11:04:01.533Z,31.89
2022-08-28T11:06:53.447Z,31.31
2022-08-28T11:10:19.848Z,30.07
2022-08-28T11:12:47.276Z,29.99
2022-08-28T11:15:46.257Z,30.61
2022-08-28T11:18:16.398Z,31.33
2022-08-28T11:20:55.334Z,30.44
2022-08-28T11:23:42.125Z,30.52
2022-08-28T11:26:09.902Z,29.73
2022-08-28T11:28:43.002Z,29.66
2022-08-28T11:31:19.181Z,29.54
2022-08-28T11:33:59.042Z,30.07
2022-08-28T11:36:46.701Z,30.42
2022-08-28T11:39:14.082Z,29.48
2022-08-28T11:42:09.986Z,30.18
2022-08-28T11:44:42.313Z,30.06
2022-08-28T11:47:34.581Z,29.74
2022-08-28T11:50:13.268Z,29.83
2022-08-28T11:53:07.710Z,29.72
2022-08-28T11:55:55.706Z,30.06
2022-08-28T11:59:09.977Z,30.32
2022-08-28T12:01:37.824Z,29.65
2022-08-28T12:04:08.410Z,30.11
2022-08-28T12:06:47.111Z,29.95
2022-08-28T12:09:35.002Z,29.29
2022-08-28T12:12:22.948Z,29.16
2022-08-28T12:15:01.308Z,29.35
2022-08-28T12:17:43.643Z,29.03
2022-08-28T12:20:21.316Z,29.78
2022-08-28T12:22:52.926Z,29.23
2022-08-28T12:25:41.941Z,29.91
2022-08-28T12:28:29.333Z,29.95
2022-08-28T12:32:05.649Z,29.59
2022-08-28T12:35:00.140Z,29.01
2022-08-28T12:37:36.834Z,29.20
2022-08-28T12:40:37.172Z,29.16
2022-08-28T12:43:08.100Z,29.12
2022-08-28T12:45:52.461Z,29.55
2022-08-28T12:48:29.546Z,29.54
2022-08-28T12:51:12.786Z,28.97
2022-08-28T12:53:45.709Z,28.94
2022-08-28T12:56:14.570Z,29.04
2022-08-28T12:58:42.666Z,29.35
2022-08-28T13:01:13.440Z,29.42
2022-08-28T13:03:50.191Z,29.39
2022-08-28T13:06:26.610Z,29.32
2022-08-28T13:09:18.898Z,29.62
2022-08-28T13:11:49.115Z,29.71
2022-08-28T13:14:43.938Z,29.77
2022-08-28T13:17:11.752Z,29.39
2022-08-28T13:19:39.133Z,29.15
2022-08-28T13:22:38.566Z,30.02
2022-08-28T13:25:06.601Z,29.60
2022-08-28T13:27:34.377Z,29.59
2022-08-28T13:30:25.982Z,29.50
2022-08-28T13:33:02.018Z,29.64
2022-08-28T13:35:31.414Z,29.60
2022-08-28T13:38:04.370Z,29.26
2022-08-28T13:40:59.134Z,29.00
2022-08-28T13:43:29.314Z,28.58
2022-08-28T13:45:56.800Z,28.51
2022-08-28T13:48:25.676Z,28.65
2022-08-28T13:50:56.982Z,28.59
2022-08-28T13:53:24.408Z,28.61
2022-08-28T13:55:51.817Z,28.60
2022-08-28T13:58:19.712Z,29.10
2022-08-28T14:00:48.952Z,29.03
2022-08-28T14:03:35.336Z,29.06
2022-08-28T14:06:04.482Z,29.33
2022-08-28T14:08:32.105Z,29.53
2022-08-28T14:10:59.558Z,29.30
2022-08-28T14:13:27.848Z,29.87
2022-08-28T14:15:56.064Z,29.27
2022-08-28T14:18:24.585Z,29.43
2022-08-28T14:20:51.996Z,29.50
2022-08-28T14:23:19.719Z,29.42
2022-08-28T14:25:47.388Z,30.01
2022-08-28T14:28:14.892Z,29.12
2022-08-28T14:30:47.017Z,29.66
2022-08-28T14:33:16.846Z,29.26
2022-08-28T14:35:44.555Z,30.12
2022-08-28T14:38:11.984Z,29.74
2022-08-28T14:40:40.594Z,29.95
2022-08-28T14:43:10.053Z,29.34
2022-08-28T14:45:43.473Z,29.27
2022-08-28T14:48:11.218Z,29.31
2022-08-28T14:50:40.939Z,29.19
2022-08-28T14:53:08.630Z,29.33
2022-08-28T14:55:41.008Z,28.65
2022-08-28T14:58:08.469Z,28.79
2022-08-28T15:00:43.016Z,28.38
2022-08-28T15:03:10.601Z,28.56
2022-08-28T15:05:38.453Z,29.01
2022-08-28T15:08:09.338Z,28.98
2022-08-28T15:10:42.998Z,28.87
2022-08-28T15:13:10.920Z,29.16
2022-08-28T15:15:39.563Z,28.86
2022-08-28T15:18:07.451Z,28.65
2022-08-28T15:20:43.093Z,28.59
2022-08-28T15:23:10.835Z,28.72
2022-08-28T15:25:38.601Z,28.41
2022-08-28T15:28:06.083Z,28.66
2022-08-28T15:30:33.490Z,28.56
2022-08-28T15:33:01.171Z,28.42
2022-08-28T15:35:28.566Z,28.51
2022-08-28T15:37:55.988Z,28.47
2022-08-28T15:40:42.640Z,28.17
2022-08-28T15:43:10.090Z,28.08
2022-08-28T15:45:38.516Z,28.28
2022-08-28T15:48:06.000Z,27.98
2022-08-28T15:50:33.393Z,28.42
2022-08-28T15:53:01.254Z,28.66
2022-08-28T15:55:28.790Z,27.53
2022-08-28T15:57:56.180Z,28.14
2022-08-28T16:00:23.796Z,28.35
2022-08-28T16:02:51.462Z,27.97
2022-08-28T16:05:18.860Z,27.73
2022-08-28T16:07:46.555Z,27.59
2022-08-28T16:10:14.284Z,28.11
2022-08-28T16:12:41.639Z,27.95
2022-08-28T16:15:09.560Z,27.99
2022-08-28T16:17:37.313Z,27.92
2022-08-28T16:20:11.068Z,27.35
2022-08-28T16:22:40.827Z,27.38
2022-08-28T16:25:09.689Z,27.13
2022-08-28T16:27:37.069Z,27.48
2022-08-28T16:30:06.533Z,27.90
2022-08-28T16:32:46.735Z,28.04
2022-08-28T16:35:15.723Z,27.94
2022-08-28T16:37:43.350Z,27.56
2022-08-28T16:40:10.976Z,28.08
2022-08-28T16:42:38.694Z,27.86
2022-08-28T16:45:06.381Z,27.76
2022-08-28T16:47:34.040Z,27.78
2022-08-28T16:50:04.582Z,27.84
2022-08-28T16:52:32.045Z,27.19
2022-08-28T16:54:59.954Z,27.35
2022-08-28T16:57:27.677Z,27.30
2022-08-28T16:59:55.379Z,27.83
2022-08-28T17:02:26.534Z,28.09
2022-08-28T17:04:54.704Z,28.54
2022-08-28T17:07:22.129Z,27.88
2022-08-28T17:09:49.464Z,27.42
2022-08-28T17:12:17.112Z,27.11
2022-08-28T17:14:44.913Z,27.59
2022-08-28T17:17:12.268Z,27.02
2022-08-28T17:19:39.961Z,27.42
2022-08-28T17:22:27.318Z,27.61
2022-08-28T17:24:55.296Z,27.46
2022-08-28T17:27:23.485Z,27.55
2022-08-28T17:29:51.081Z,27.53
2022-08-28T17:32:18.873Z,27.87
2022-08-28T17:34:46.231Z,27.46
2022-08-28T17:37:13.714Z,27.92
2022-08-28T17:39:41.408Z,26.73
2022-08-28T17:42:09.110Z,26.86
2022-08-28T17:44:36.521Z,26.93
2022-08-28T17:47:04.473Z,27.13
2022-08-28T17:49:31.983Z,27.29
2022-08-28T17:51:59.402Z,27.50
2022-08-28T17:54:27.050Z,27.81
2022-08-28T17:56:54.538Z,27.91
2022-08-28T17:59:22.512Z,27.44
2022-08-28T18:01:50.201Z,27.76
2022-08-28T18:04:23.226Z,27.22
2022-08-28T18:06:54.244Z,27.65
2022-08-28T18:09:23.052Z,27.77
2022-08-28T18:11:50.662Z,26.71
2022-08-28T18:14:18.208Z,27.33
2022-08-28T18:16:45.963Z,27.15
2022-08-28T18:19:13.978Z,27.07
2022-08-28T18:21:41.589Z,26.82
2022-08-28T18:24:10.337Z,26.79
2022-08-28T18:26:40.224Z,26.95
2022-08-28T18:29:07.833Z,26.35
2022-08-28T18:31:35.713Z,26.41
2022-08-28T18:34:03.658Z,26.12
2022-08-28T18:36:31.257Z,26.74
2022-08-28T18:38:59.516Z,26.81
2022-08-28T18:41:32.636Z,26.03
2022-08-28T18:44:12.037Z,26.82
2022-08-28T18:46:40.026Z,26.39
2022-08-28T18:49:09.045Z,25.82
2022-08-28T18:51:40.805Z,25.71
2022-08-28T18:54:08.354Z,25.94
2022-08-28T18:56:38.325Z,26.51
2022-08-28T18:59:06.501Z,26.68
2022-08-28T19:01:34.119Z,25.72
2022-08-28T19:04:01.929Z,25.65
2022-08-28T19:06:29.577Z,25.62
2022-08-28T19:09:02.133Z,25.62
2022-08-28T19:11:31.449Z,25.51
2022-08-28T19:13:59.546Z,25.76
2022-08-28T19:16:32.153Z,25.27
2022-08-28T19:19:00.412Z,26.12
2022-08-28T19:21:29.129Z,25.72
2022-08-28T19:23:56.959Z,25.65
2022-08-28T19:26:29.635Z,25.52
2022-08-28T19:28:58.317Z,25.04
2022-08-28T19:31:25.839Z,24.88
2022-08-28T19:33:54.328Z,25.27
2022-08-28T19:36:22.501Z,25.21
2022-08-28T19:38:50.169Z,24.96
2022-08-28T19:41:17.633Z,24.57
2022-08-28T19:43:46.268Z,25.30
2022-08-28T19:46:19.621Z,24.54
2022-08-28T19:48:51.253Z,24.61
2022-08-28T19:51:23.514Z,25.33
2022-08-28T19:53:58.247Z,25.17
2022-08-28T19:56:27.939Z,25.13
2022-08-28T19:59:00.530Z,24.86
2022-08-28T20:01:37.892Z,25.06
2022-08-28T20:04:07.039Z,24.45
2022-08-28T20:06:35.074Z,24.56
2022-08-28T20:09:03.301Z,24.64
2022-08-28T20:11:33.312Z,24.60
2022-08-28T20:14:04.887Z,24.35
2022-08-28T20:16:35.109Z,24.01
2022-08-28T20:19:04.034Z,24.27
2022-08-28T20:21:37.618Z,24.75
2022-08-28T20:24:10.995Z,24.25
2022-08-28T20:26:39.657Z,23.55
2022-08-28T20:29:08.564Z,23.79
2022-08-28T20:31:38.085Z,23.90
2022-08-28T20:34:05.992Z,23.53
2022-08-28T20:36:33.753Z,23.59
2022-08-28T20:39:03.972Z,23.54
2022-08-28T20:41:31.629Z,23.38
2022-08-28T20:44:01.159Z,23.80
2022-08-28T20:46:31.864Z,23.58
2022-08-28T20:48:59.709Z,23.86
2022-08-28T20:51:45.826Z,23.50
2022-08-28T20:54:13.556Z,23.50
2022-08-28T20:56:41.117Z,24.08
2022-08-28T20:59:09.125Z,23.99
2022-08-28T21:01:36.875Z,23.29
2022-08-28T21:04:04.656Z,23.49
2022-08-28T21:06:32.124Z,23.45
2022-08-28T21:08:59.757Z,23.71
2022-08-28T21:11:27.186Z,23.49
2022-08-28T21:13:55.389Z,23.45
2022-08-28T21:16:23.122Z,23.69
2022-08-28T21:19:12.130Z,24.37
2022-08-28T21:21:38.171Z,23.67
2022-08-28T21:24:06.986Z,22.62
2022-08-28T21:26:34.406Z,23.05
2022-08-28T21:29:02.104Z,22.81
2022-08-28T21:31:29.467Z,22.80
2022-08-28T21:33:56.864Z,22.67
2022-08-28T21:36:24.572Z,22.68
2022-08-28T21:38:51.923Z,22.60
2022-08-28T21:41:19.297Z,23.22
2022-08-28T21:43:46.953Z,22.58
2022-08-28T21:46:15.347Z,22.43
2022-08-28T21:48:42.852Z,22.56
2022-08-28T21:51:11.917Z,23.11
2022-08-28T21:53:39.850Z,22.90
2022-08-28T21:56:07.992Z,22.74
2022-08-28T21:58:36.261Z,23.19
2022-08-28T22:01:03.873Z,23.28
2022-08-28T22:03:31.558Z,23.56
2022-08-28T22:05:58.992Z,23.06
2022-08-28T22:08:27.350Z,22.75
2022-08-28T22:10:55.864Z,22.80
2022-08-28T22:13:23.486Z,23.19
2022-08-28T22:15:50.872Z,22.54
2022-08-28T22:18:18.505Z,22.96
2022-08-28T22:21:05.100Z,23.07
2022-08-28T22:23:34.827Z,23.17
2022-08-28T22:26:07.093Z,22.96
2022-08-28T22:28:34.755Z,22.56
2022-08-28T22:31:02.392Z,22.88
2022-08-28T22:33:33.621Z,22.78
2022-08-28T22:36:01.381Z,22.55
2022-08-28T22:38:29.440Z,22.48
2022-08-28T22:40:57.440Z,22.33
2022-08-28T22:43:25.114Z,22.43
2022-08-28T22:45:52.542Z,22.07
2022-08-28T22:48:19.995Z,22.08
2022-08-28T22:50:47.711Z,22.18
2022-08-28T22:53:17.400Z,21.74
2022-08-28T22:55:44.972Z,21.78
2022-08-28T22:58:13.037Z,21.84
2022-08-28T23:00:40.521Z,21.42
2022-08-28T23:03:07.964Z,21.76
2022-08-28T23:05:35.698Z,22.00
2022-08-28T23:08:03.214Z,22.26
2022-08-28T23:10:55.321Z,22.54
2022-08-28T23:13:19.629Z,22.08
2022-08-28T23:15:48.265Z,21.58
2022-08-28T23:18:16.310Z,21.37
2022-08-28T23:20:44.989Z,21.54
2022-08-28T23:23:12.487Z,21.61
2022-08-28T23:25:39.872Z,21.52
2022-08-28T23:28:07.576Z,21.25
2022-08-28T23:30:34.957Z,21.42
2022-08-28T23:33:03.691Z,21.10
2022-08-28T23:35:36.344Z,21.27
2022-08-28T23:38:04.332Z,21.14
2022-08-28T23:40:33.938Z,21.35
2022-08-28T23:43:04.148Z,21.35
2022-08-28T23:45:31.533Z,21.94
2022-08-28T23:47:58.999Z,21.67
2022-08-28T23:50:27.435Z,21.29
2022-08-28T23:52:54.801Z,20.98
2022-08-28T23:55:22.532Z,21.30
2022-08-28T23:57:54.845Z,21.51
